RYR1988 LEIB-EGCC
Flight info
| Callsign | RYR1988 |
|---|---|
| Flight time | 2h 14m |
| Altitude | 38000 |
| Route | EPAMA N856 EBROX DCT UMURE N863 GIROM DCT AGN DCT SECHE DCT UVELI DCT CNA DCT TUPAR UY120 AKIKI UN867 AVANT UM184 HEMEL T420 ELVOS |
| Aircraft | B38M/M-SDE1FGHILORVWXY/HB1 |
Departure
| Time | 2026-04-30 19:41 |
|---|---|
| Airport | Ibiza Airport (LEIB) |
Arrival
| Time | 2026-04-30 21:55 |
|---|---|
| Airport | Manchester Airport (EGCC) |
| Time | Latitude | Longitude | Altitude | Speed | Heading |
|---|---|---|---|---|---|
| 2026-04-30 19:01 | 38.87645 | 1.37136 | 52 ft | 0 kts | 17° |
| 2026-04-30 19:34 | 38.87647 | 1.37138 | 52 ft | 2 kts | 31° |
| 2026-04-30 19:35 | 38.87652 | 1.37197 | 50 ft | 13 kts | 145° |
| 2026-04-30 19:35 | 38.87573 | 1.37119 | 49 ft | 18 kts | 240° |
| 2026-04-30 19:35 | 38.87509 | 1.36970 | 48 ft | 20 kts | 241° |
| 2026-04-30 19:35 | 38.87443 | 1.36799 | 46 ft | 22 kts | 239° |
| 2026-04-30 19:36 | 38.87371 | 1.36799 | 43 ft | 11 kts | 136° |
| 2026-04-30 19:36 | 38.87291 | 1.36836 | 40 ft | 15 kts | 208° |
| 2026-04-30 19:36 | 38.87127 | 1.36478 | 36 ft | 27 kts | 242° |
| 2026-04-30 19:37 | 38.87033 | 1.36255 | 34 ft | 29 kts | 242° |
| 2026-04-30 19:37 | 38.86933 | 1.36016 | 30 ft | 32 kts | 242° |
| 2026-04-30 19:37 | 38.86843 | 1.35818 | 27 ft | 12 kts | 195° |
| 2026-04-30 19:37 | 38.86789 | 1.35840 | 26 ft | 1 kts | 150° |
| 2026-04-30 19:38 | 38.86783 | 1.35845 | 27 ft | 1 kts | 150° |
| 2026-04-30 19:38 | 38.86769 | 1.35855 | 27 ft | 7 kts | 150° |
| 2026-04-30 19:38 | 38.86718 | 1.35936 | 27 ft | 18 kts | 83° |
| 2026-04-30 19:38 | 38.86734 | 1.35982 | 27 ft | 1 kts | 60° |
| 2026-04-30 19:39 | 38.86738 | 1.35992 | 28 ft | 1 kts | 60° |
| 2026-04-30 19:39 | 38.86738 | 1.35993 | 28 ft | 0 kts | 60° |
| 2026-04-30 19:40 | 38.86762 | 1.36048 | 28 ft | 28 kts | 62° |
| 2026-04-30 19:40 | 38.86962 | 1.36532 | 30 ft | 93 kts | 62° |
| 2026-04-30 19:40 | 38.87354 | 1.37478 | 34 ft | 145 kts | 62° |
| 2026-04-30 19:41 | 38.87844 | 1.38724 | 313 ft | 161 kts | 65° |
| 2026-04-30 19:41 | 38.88280 | 1.40122 | 680 ft | 176 kts | 75° |
| 2026-04-30 19:41 | 38.88563 | 1.41604 | 1440 ft | 170 kts | 76° |
| 2026-04-30 19:41 | 38.88851 | 1.43155 | 2053 ft | 190 kts | 76° |
| 2026-04-30 19:42 | 38.89173 | 1.44914 | 2733 ft | 216 kts | 76° |
| 2026-04-30 19:42 | 38.89530 | 1.46881 | 3503 ft | 233 kts | 75° |
| 2026-04-30 19:42 | 38.89894 | 1.48927 | 4150 ft | 241 kts | 75° |
| 2026-04-30 19:42 | 38.90276 | 1.51071 | 4938 ft | 245 kts | 75° |
| 2026-04-30 19:43 | 38.90713 | 1.53249 | 5466 ft | 260 kts | 65° |
| 2026-04-30 19:43 | 38.91782 | 1.55170 | 5866 ft | 273 kts | 40° |
| 2026-04-30 19:43 | 38.93173 | 1.56811 | 6612 ft | 276 kts | 40° |
| 2026-04-30 19:44 | 38.96077 | 1.60218 | 7967 ft | 288 kts | 40° |
| 2026-04-30 19:44 | 38.97581 | 1.61964 | 8647 ft | 294 kts | 40° |
| 2026-04-30 19:44 | 38.99119 | 1.63739 | 9348 ft | 300 kts | 38° |
| 2026-04-30 19:44 | 39.00889 | 1.65126 | 9847 ft | 299 kts | 15° |
| 2026-04-30 19:45 | 39.02918 | 1.65572 | 10000 ft | 297 kts | 2° |
| 2026-04-30 19:45 | 39.04977 | 1.65859 | 10035 ft | 298 kts | 3° |
| 2026-04-30 19:45 | 39.07037 | 1.66150 | 10049 ft | 298 kts | 2° |
| 2026-04-30 19:45 | 39.09096 | 1.66334 | 10039 ft | 294 kts | 351° |
| 2026-04-30 19:46 | 39.11018 | 1.65626 | 10067 ft | 287 kts | 333° |
| 2026-04-30 19:46 | 39.12872 | 1.64627 | 10068 ft | 289 kts | 334° |
| 2026-04-30 19:46 | 39.14739 | 1.63618 | 10085 ft | 297 kts | 334° |
| 2026-04-30 19:46 | 39.16694 | 1.62545 | 10409 ft | 315 kts | 334° |
| 2026-04-30 19:47 | 39.18765 | 1.61399 | 10738 ft | 331 kts | 334° |
| 2026-04-30 19:47 | 39.20179 | 1.60612 | 11049 ft | 337 kts | 334° |
| 2026-04-30 19:47 | 39.23071 | 1.58998 | 12024 ft | 341 kts | 333° |
| 2026-04-30 19:47 | 39.25259 | 1.57773 | 12726 ft | 345 kts | 333° |
| 2026-04-30 19:48 | 39.27472 | 1.56534 | 13462 ft | 349 kts | 333° |
| 2026-04-30 19:48 | 39.29708 | 1.55281 | 14162 ft | 353 kts | 333° |
| 2026-04-30 19:48 | 39.31973 | 1.54012 | 14854 ft | 356 kts | 333° |
| 2026-04-30 19:48 | 39.34258 | 1.52729 | 15547 ft | 360 kts | 333° |
| 2026-04-30 19:49 | 39.36568 | 1.51431 | 16199 ft | 365 kts | 333° |
| 2026-04-30 19:49 | 39.41241 | 1.48804 | 17511 ft | 372 kts | 333° |
| 2026-04-30 19:49 | 39.43626 | 1.47461 | 18158 ft | 376 kts | 334° |
| 2026-04-30 19:50 | 39.46039 | 1.46101 | 18731 ft | 379 kts | 334° |
| 2026-04-30 19:50 | 39.48469 | 1.44732 | 19299 ft | 382 kts | 334° |
| 2026-04-30 19:50 | 39.50916 | 1.43350 | 19841 ft | 386 kts | 334° |
| 2026-04-30 19:50 | 39.53385 | 1.41956 | 20385 ft | 389 kts | 333° |
| 2026-04-30 19:51 | 39.55873 | 1.40551 | 20932 ft | 392 kts | 333° |
| 2026-04-30 19:51 | 39.58381 | 1.39132 | 21480 ft | 395 kts | 333° |
| 2026-04-30 19:51 | 39.61009 | 1.38036 | 22006 ft | 402 kts | 349° |
| 2026-04-30 19:51 | 39.63796 | 1.37638 | 22554 ft | 405 kts | 351° |
| 2026-04-30 19:52 | 39.66616 | 1.37229 | 23018 ft | 409 kts | 351° |
| 2026-04-30 19:52 | 39.69453 | 1.36836 | 23544 ft | 412 kts | 351° |
| 2026-04-30 19:52 | 39.72316 | 1.36450 | 23967 ft | 415 kts | 351° |
| 2026-04-30 19:52 | 39.75204 | 1.36065 | 24386 ft | 418 kts | 351° |
| 2026-04-30 19:53 | 39.78104 | 1.35679 | 24795 ft | 420 kts | 351° |
| 2026-04-30 19:53 | 39.81022 | 1.35291 | 25210 ft | 423 kts | 351° |
| 2026-04-30 19:53 | 39.83961 | 1.34900 | 25612 ft | 426 kts | 351° |
| 2026-04-30 19:53 | 39.86919 | 1.34506 | 26006 ft | 428 kts | 351° |
| 2026-04-30 19:54 | 39.89851 | 1.34115 | 26386 ft | 431 kts | 351° |
| 2026-04-30 19:54 | 39.92841 | 1.33716 | 26770 ft | 433 kts | 351° |
| 2026-04-30 19:54 | 39.95850 | 1.33314 | 27149 ft | 436 kts | 351° |
| 2026-04-30 19:54 | 39.98875 | 1.32910 | 27523 ft | 438 kts | 351° |
| 2026-04-30 19:55 | 40.01918 | 1.32503 | 27889 ft | 441 kts | 351° |
| 2026-04-30 19:55 | 40.04984 | 1.32092 | 28238 ft | 444 kts | 350° |
| 2026-04-30 19:55 | 40.08068 | 1.31679 | 28568 ft | 447 kts | 350° |
| 2026-04-30 19:55 | 40.11169 | 1.31263 | 28929 ft | 449 kts | 350° |
| 2026-04-30 19:56 | 40.14288 | 1.30844 | 29271 ft | 452 kts | 350° |
| 2026-04-30 19:56 | 40.17430 | 1.30422 | 29609 ft | 454 kts | 350° |
| 2026-04-30 19:56 | 40.20582 | 1.29998 | 29949 ft | 457 kts | 350° |
| 2026-04-30 19:56 | 40.23753 | 1.29571 | 30248 ft | 459 kts | 350° |
| 2026-04-30 19:57 | 40.26946 | 1.29142 | 30517 ft | 462 kts | 350° |
| 2026-04-30 19:57 | 40.30153 | 1.28709 | 30774 ft | 465 kts | 350° |
| 2026-04-30 19:57 | 40.33376 | 1.28274 | 31063 ft | 466 kts | 350° |
| 2026-04-30 19:57 | 40.36610 | 1.27836 | 31347 ft | 468 kts | 350° |
| 2026-04-30 19:58 | 40.39862 | 1.27396 | 31614 ft | 470 kts | 350° |
| 2026-04-30 19:58 | 40.43125 | 1.26954 | 31885 ft | 472 kts | 350° |
| 2026-04-30 19:58 | 40.46395 | 1.26511 | 32211 ft | 472 kts | 350° |
| 2026-04-30 19:58 | 40.49618 | 1.26074 | 32622 ft | 471 kts | 351° |
| 2026-04-30 19:59 | 40.52871 | 1.25631 | 33033 ft | 469 kts | 350° |
| 2026-04-30 19:59 | 40.56117 | 1.25190 | 33407 ft | 468 kts | 350° |
| 2026-04-30 19:59 | 40.62589 | 1.24309 | 34118 ft | 467 kts | 350° |
| 2026-04-30 20:00 | 40.65820 | 1.23868 | 34426 ft | 466 kts | 350° |
| 2026-04-30 20:00 | 40.69049 | 1.23427 | 34708 ft | 466 kts | 350° |
| 2026-04-30 20:00 | 40.72274 | 1.22986 | 34998 ft | 465 kts | 350° |
| 2026-04-30 20:00 | 40.75491 | 1.22546 | 35270 ft | 465 kts | 350° |
| 2026-04-30 20:01 | 40.81923 | 1.21665 | 35811 ft | 464 kts | 350° |
| 2026-04-30 20:01 | 40.85133 | 1.21225 | 36071 ft | 463 kts | 350° |
| 2026-04-30 20:01 | 40.88340 | 1.20784 | 36308 ft | 463 kts | 350° |
| 2026-04-30 20:02 | 40.94741 | 1.19905 | 36867 ft | 460 kts | 350° |
| 2026-04-30 20:02 | 40.97929 | 1.19465 | 37111 ft | 460 kts | 350° |
| 2026-04-30 20:03 | 41.04285 | 1.18589 | 37533 ft | 459 kts | 350° |
| 2026-04-30 20:03 | 41.07418 | 1.18156 | 37729 ft | 458 kts | 350° |
| 2026-04-30 20:03 | 41.10588 | 1.17718 | 37920 ft | 458 kts | 351° |
| 2026-04-30 20:03 | 41.13762 | 1.17280 | 38108 ft | 458 kts | 351° |
| 2026-04-30 20:04 | 41.20102 | 1.16574 | 38115 ft | 455 kts | 352° |
| 2026-04-30 20:05 | 41.29578 | 1.15588 | 38120 ft | 456 kts | 352° |
| 2026-04-30 20:05 | 41.39052 | 1.14596 | 38111 ft | 453 kts | 351° |
| 2026-04-30 20:06 | 41.45348 | 1.13931 | 38136 ft | 455 kts | 352° |
| 2026-04-30 20:06 | 41.51622 | 1.13270 | 38135 ft | 455 kts | 352° |
| 2026-04-30 20:07 | 41.57928 | 1.12603 | 38136 ft | 455 kts | 352° |
| 2026-04-30 20:08 | 41.67383 | 1.11602 | 38128 ft | 454 kts | 352° |
| 2026-04-30 20:08 | 41.73684 | 1.10934 | 38105 ft | 454 kts | 352° |
| 2026-04-30 20:09 | 41.79981 | 1.10264 | 38115 ft | 453 kts | 351° |
| 2026-04-30 20:09 | 41.89380 | 1.09262 | 38088 ft | 452 kts | 351° |
| 2026-04-30 20:10 | 41.98784 | 1.08256 | 38091 ft | 452 kts | 351° |
| 2026-04-30 20:11 | 42.08123 | 1.07254 | 38103 ft | 450 kts | 351° |
| 2026-04-30 20:11 | 42.14373 | 1.06582 | 38111 ft | 450 kts | 351° |
| 2026-04-30 20:12 | 42.23740 | 1.05575 | 38157 ft | 449 kts | 351° |
| 2026-04-30 20:13 | 42.29960 | 1.04904 | 38167 ft | 449 kts | 351° |
| 2026-04-30 20:13 | 42.36183 | 1.04232 | 38184 ft | 449 kts | 351° |
| 2026-04-30 20:14 | 42.42410 | 1.03558 | 38200 ft | 448 kts | 351° |
| 2026-04-30 20:14 | 42.48605 | 1.02884 | 38182 ft | 445 kts | 350° |
| 2026-04-30 20:15 | 42.54805 | 1.02209 | 38169 ft | 446 kts | 351° |
| 2026-04-30 20:15 | 42.60946 | 1.01537 | 38223 ft | 446 kts | 351° |
| 2026-04-30 20:16 | 42.67139 | 1.00859 | 38143 ft | 445 kts | 350° |
| 2026-04-30 20:16 | 42.73317 | 1.00182 | 38211 ft | 447 kts | 351° |
| 2026-04-30 20:17 | 42.79505 | 0.99502 | 38169 ft | 445 kts | 351° |
| 2026-04-30 20:17 | 42.84644 | 0.98938 | 38181 ft | 446 kts | 351° |
| 2026-04-30 20:18 | 42.90832 | 0.98257 | 38180 ft | 446 kts | 350° |
| 2026-04-30 20:18 | 42.97017 | 0.97574 | 38162 ft | 446 kts | 351° |
| 2026-04-30 20:19 | 43.03204 | 0.96890 | 38178 ft | 446 kts | 350° |
| 2026-04-30 20:19 | 43.09382 | 0.96207 | 38168 ft | 445 kts | 350° |
| 2026-04-30 20:20 | 43.15562 | 0.95521 | 38167 ft | 445 kts | 350° |
| 2026-04-30 20:20 | 43.21747 | 0.94833 | 38164 ft | 446 kts | 350° |
| 2026-04-30 20:21 | 43.27922 | 0.94145 | 38166 ft | 445 kts | 350° |
| 2026-04-30 20:21 | 43.34096 | 0.93456 | 38157 ft | 445 kts | 350° |
| 2026-04-30 20:22 | 43.40270 | 0.92765 | 38160 ft | 445 kts | 350° |
| 2026-04-30 20:22 | 43.46450 | 0.92073 | 38159 ft | 445 kts | 351° |
| 2026-04-30 20:23 | 43.52623 | 0.91379 | 38157 ft | 445 kts | 351° |
| 2026-04-30 20:23 | 43.58799 | 0.90684 | 38160 ft | 445 kts | 351° |
| 2026-04-30 20:24 | 43.64977 | 0.89987 | 38170 ft | 445 kts | 351° |
| 2026-04-30 20:24 | 43.71151 | 0.89289 | 38166 ft | 445 kts | 351° |
| 2026-04-30 20:25 | 43.80373 | 0.88244 | 38164 ft | 445 kts | 351° |
| 2026-04-30 20:26 | 43.89531 | 0.86599 | 38129 ft | 433 kts | 333° |
| 2026-04-30 20:26 | 43.97772 | 0.81483 | 38164 ft | 434 kts | 331° |
| 2026-04-30 20:27 | 44.08749 | 0.74417 | 38163 ft | 436 kts | 331° |
| 2026-04-30 20:28 | 44.19741 | 0.67284 | 38158 ft | 436 kts | 331° |
| 2026-04-30 20:30 | 44.33500 | 0.58313 | 38161 ft | 437 kts | 331° |
| 2026-04-30 20:31 | 44.50026 | 0.47439 | 38164 ft | 439 kts | 332° |
| 2026-04-30 20:32 | 44.63793 | 0.38290 | 38162 ft | 440 kts | 332° |
| 2026-04-30 20:33 | 44.72066 | 0.32769 | 38158 ft | 438 kts | 332° |
| 2026-04-30 20:34 | 44.80330 | 0.27236 | 38160 ft | 439 kts | 332° |
| 2026-04-30 20:35 | 44.88590 | 0.21688 | 38159 ft | 438 kts | 332° |
| 2026-04-30 20:35 | 44.96850 | 0.16123 | 38159 ft | 438 kts | 332° |
| 2026-04-30 20:36 | 45.02361 | 0.12401 | 38167 ft | 440 kts | 332° |
| 2026-04-30 20:37 | 45.10655 | 0.06780 | 38161 ft | 441 kts | 332° |
| 2026-04-30 20:37 | 45.16150 | 0.03046 | 38164 ft | 441 kts | 332° |
| 2026-04-30 20:38 | 45.21686 | -0.00723 | 38164 ft | 442 kts | 332° |
| 2026-04-30 20:38 | 45.27228 | -0.04505 | 38163 ft | 441 kts | 332° |
| 2026-04-30 20:39 | 45.35523 | -0.10181 | 38165 ft | 441 kts | 332° |
| 2026-04-30 20:40 | 45.43825 | -0.15880 | 38165 ft | 443 kts | 332° |
| 2026-04-30 20:40 | 45.49383 | -0.19706 | 38160 ft | 443 kts | 332° |
| 2026-04-30 20:41 | 45.57710 | -0.25454 | 38156 ft | 443 kts | 332° |
| 2026-04-30 20:41 | 45.63283 | -0.29309 | 38161 ft | 446 kts | 333° |
| 2026-04-30 20:42 | 45.69061 | -0.32533 | 38175 ft | 447 kts | 341° |
| 2026-04-30 20:43 | 45.77974 | -0.36579 | 38159 ft | 448 kts | 341° |
| 2026-04-30 20:43 | 45.83926 | -0.39271 | 38163 ft | 448 kts | 341° |
| 2026-04-30 20:44 | 45.92812 | -0.43301 | 38152 ft | 449 kts | 341° |
| 2026-04-30 20:45 | 46.04715 | -0.48719 | 38160 ft | 449 kts | 341° |
| 2026-04-30 20:45 | 46.10664 | -0.51437 | 38151 ft | 449 kts | 341° |
| 2026-04-30 20:46 | 46.22571 | -0.56894 | 38152 ft | 449 kts | 341° |
| 2026-04-30 20:47 | 46.31502 | -0.61004 | 38158 ft | 449 kts | 341° |
| 2026-04-30 20:48 | 46.40390 | -0.65107 | 38153 ft | 449 kts | 341° |
| 2026-04-30 20:48 | 46.46115 | -0.68630 | 38173 ft | 448 kts | 333° |
| 2026-04-30 20:49 | 46.51694 | -0.72682 | 38154 ft | 448 kts | 333° |
| 2026-04-30 20:50 | 46.60058 | -0.78802 | 38154 ft | 448 kts | 332° |
| 2026-04-30 20:50 | 46.65627 | -0.82890 | 38141 ft | 448 kts | 333° |
| 2026-04-30 20:51 | 46.71183 | -0.86978 | 38149 ft | 448 kts | 333° |
| 2026-04-30 20:51 | 46.79512 | -0.93124 | 38147 ft | 448 kts | 333° |
| 2026-04-30 20:52 | 46.85072 | -0.97240 | 38138 ft | 448 kts | 333° |
| 2026-04-30 20:53 | 46.93459 | -1.03226 | 38116 ft | 447 kts | 343° |
| 2026-04-30 20:53 | 46.96504 | -1.04040 | 38161 ft | 446 kts | 354° |
| 2026-04-30 20:53 | 46.99603 | -1.04539 | 38096 ft | 449 kts | 353° |
| 2026-04-30 20:54 | 47.08887 | -1.05900 | 38137 ft | 449 kts | 354° |
| 2026-04-30 20:55 | 47.18218 | -1.07173 | 38132 ft | 449 kts | 354° |
| 2026-04-30 20:55 | 47.24451 | -1.08024 | 38131 ft | 450 kts | 354° |
| 2026-04-30 20:56 | 47.33811 | -1.09306 | 38140 ft | 450 kts | 354° |
| 2026-04-30 20:57 | 47.43177 | -1.10593 | 38130 ft | 452 kts | 354° |
| 2026-04-30 20:57 | 47.49451 | -1.11458 | 38137 ft | 453 kts | 354° |
| 2026-04-30 20:58 | 47.58860 | -1.12761 | 38132 ft | 453 kts | 354° |
| 2026-04-30 20:58 | 47.65145 | -1.13634 | 38134 ft | 454 kts | 354° |
| 2026-04-30 20:59 | 47.74595 | -1.14950 | 38132 ft | 454 kts | 354° |
| 2026-04-30 21:00 | 47.87192 | -1.16713 | 38139 ft | 456 kts | 354° |
| 2026-04-30 21:01 | 47.96679 | -1.18046 | 38140 ft | 456 kts | 354° |
| 2026-04-30 21:02 | 48.06128 | -1.19378 | 38138 ft | 457 kts | 354° |
| 2026-04-30 21:02 | 48.12472 | -1.20276 | 38138 ft | 457 kts | 354° |
| 2026-04-30 21:03 | 48.18810 | -1.21174 | 38139 ft | 457 kts | 354° |
| 2026-04-30 21:03 | 48.25153 | -1.22076 | 38131 ft | 459 kts | 354° |
| 2026-04-30 21:04 | 48.31521 | -1.22983 | 38145 ft | 460 kts | 354° |
| 2026-04-30 21:04 | 48.41084 | -1.24351 | 38140 ft | 460 kts | 354° |
| 2026-04-30 21:05 | 48.46379 | -1.25111 | 38144 ft | 460 kts | 354° |
| 2026-04-30 21:05 | 48.53802 | -1.26177 | 38146 ft | 461 kts | 354° |
| 2026-04-30 21:06 | 48.59153 | -1.26948 | 38128 ft | 461 kts | 354° |
| 2026-04-30 21:06 | 48.65543 | -1.27871 | 38128 ft | 461 kts | 354° |
| 2026-04-30 21:07 | 48.71942 | -1.28798 | 38136 ft | 462 kts | 354° |
| 2026-04-30 21:07 | 48.78348 | -1.29728 | 38136 ft | 462 kts | 354° |
| 2026-04-30 21:08 | 48.84747 | -1.30659 | 38134 ft | 462 kts | 354° |
| 2026-04-30 21:08 | 48.91155 | -1.31594 | 38135 ft | 462 kts | 354° |
| 2026-04-30 21:09 | 48.97500 | -1.32523 | 38125 ft | 460 kts | 354° |
| 2026-04-30 21:09 | 49.03880 | -1.33459 | 38127 ft | 461 kts | 354° |
| 2026-04-30 21:10 | 49.10261 | -1.34396 | 38126 ft | 461 kts | 354° |
| 2026-04-30 21:10 | 49.16669 | -1.35342 | 38122 ft | 463 kts | 354° |
| 2026-04-30 21:11 | 49.23077 | -1.36289 | 38124 ft | 463 kts | 354° |
| 2026-04-30 21:11 | 49.29484 | -1.37239 | 38122 ft | 463 kts | 354° |
| 2026-04-30 21:12 | 49.35902 | -1.38192 | 38125 ft | 464 kts | 354° |
| 2026-04-30 21:12 | 49.42327 | -1.39150 | 38121 ft | 464 kts | 354° |
| 2026-04-30 21:13 | 49.48751 | -1.40109 | 38125 ft | 464 kts | 354° |
| 2026-04-30 21:13 | 49.55177 | -1.41071 | 38137 ft | 465 kts | 354° |
| 2026-04-30 21:14 | 49.61626 | -1.41427 | 38144 ft | 464 kts | 4° |
| 2026-04-30 21:14 | 49.68092 | -1.40875 | 38116 ft | 465 kts | 3° |
| 2026-04-30 21:15 | 49.74558 | -1.40307 | 38128 ft | 466 kts | 3° |
| 2026-04-30 21:15 | 49.81033 | -1.39733 | 38129 ft | 467 kts | 3° |
| 2026-04-30 21:16 | 49.87519 | -1.39157 | 38121 ft | 467 kts | 3° |
| 2026-04-30 21:16 | 49.94000 | -1.38580 | 38117 ft | 467 kts | 3° |
| 2026-04-30 21:17 | 50.00444 | -1.37885 | 38111 ft | 467 kts | 9° |
| 2026-04-30 21:17 | 50.06874 | -1.36337 | 38106 ft | 468 kts | 10° |
| 2026-04-30 21:18 | 50.13300 | -1.34743 | 38130 ft | 468 kts | 10° |
| 2026-04-30 21:18 | 50.19726 | -1.33142 | 38126 ft | 467 kts | 10° |
| 2026-04-30 21:19 | 50.26155 | -1.31535 | 38134 ft | 468 kts | 10° |
| 2026-04-30 21:19 | 50.32589 | -1.29922 | 38131 ft | 468 kts | 10° |
| 2026-04-30 21:20 | 50.39017 | -1.28307 | 38149 ft | 468 kts | 10° |
| 2026-04-30 21:20 | 50.45442 | -1.26688 | 38134 ft | 467 kts | 10° |
| 2026-04-30 21:21 | 50.51605 | -1.23834 | 38121 ft | 460 kts | 33° |
| 2026-04-30 21:22 | 50.59839 | -1.15947 | 38163 ft | 463 kts | 34° |
| 2026-04-30 21:23 | 50.70699 | -1.05157 | 38158 ft | 463 kts | 34° |
| 2026-04-30 21:23 | 50.78853 | -0.96995 | 38156 ft | 463 kts | 34° |
| 2026-04-30 21:24 | 50.84622 | -0.92574 | 38195 ft | 463 kts | 19° |
| 2026-04-30 21:24 | 50.90757 | -0.89334 | 38184 ft | 464 kts | 20° |
| 2026-04-30 21:25 | 50.99985 | -0.84539 | 38174 ft | 465 kts | 20° |
| 2026-04-30 21:26 | 51.09212 | -0.79740 | 38187 ft | 465 kts | 20° |
| 2026-04-30 21:27 | 51.18394 | -0.74943 | 38186 ft | 465 kts | 20° |
| 2026-04-30 21:27 | 51.24542 | -0.71721 | 38183 ft | 465 kts | 20° |
| 2026-04-30 21:28 | 51.26998 | -0.70431 | 38182 ft | 465 kts | 20° |
| 2026-04-30 21:29 | 51.33949 | -0.66774 | 38209 ft | 465 kts | 20° |
| 2026-04-30 21:30 | 51.49399 | -0.58600 | 38214 ft | 466 kts | 20° |
| 2026-04-30 21:31 | 51.64763 | -0.50414 | 38214 ft | 467 kts | 20° |
| 2026-04-30 21:32 | 51.73997 | -0.45468 | 37809 ft | 464 kts | 20° |
| 2026-04-30 21:32 | 51.77141 | -0.44235 | 36889 ft | 468 kts | 6° |
| 2026-04-30 21:32 | 51.80391 | -0.44289 | 36155 ft | 471 kts | 352° |
| 2026-04-30 21:33 | 51.83531 | -0.45629 | 35667 ft | 465 kts | 336° |
| 2026-04-30 21:33 | 51.89142 | -0.50448 | 34940 ft | 451 kts | 329° |
| 2026-04-30 21:33 | 51.91856 | -0.52995 | 34416 ft | 450 kts | 328° |
| 2026-04-30 21:34 | 51.94549 | -0.55572 | 33769 ft | 451 kts | 328° |
| 2026-04-30 21:34 | 51.99931 | -0.60806 | 32583 ft | 449 kts | 328° |
| 2026-04-30 21:34 | 52.02586 | -0.63405 | 32184 ft | 444 kts | 328° |
| 2026-04-30 21:35 | 52.05221 | -0.65988 | 31738 ft | 440 kts | 328° |
| 2026-04-30 21:35 | 52.07834 | -0.68554 | 31242 ft | 438 kts | 328° |
| 2026-04-30 21:35 | 52.10444 | -0.71121 | 30732 ft | 437 kts | 328° |
| 2026-04-30 21:35 | 52.13045 | -0.73683 | 30229 ft | 436 kts | 328° |
| 2026-04-30 21:36 | 52.15639 | -0.76240 | 29609 ft | 437 kts | 328° |
| 2026-04-30 21:36 | 52.18225 | -0.78795 | 29131 ft | 433 kts | 328° |
| 2026-04-30 21:37 | 52.25879 | -0.86374 | 27706 ft | 426 kts | 328° |
| 2026-04-30 21:37 | 52.28370 | -0.88848 | 27254 ft | 424 kts | 328° |
| 2026-04-30 21:37 | 52.30877 | -0.91340 | 26853 ft | 420 kts | 328° |
| 2026-04-30 21:37 | 52.33367 | -0.93819 | 26416 ft | 418 kts | 328° |
| 2026-04-30 21:38 | 52.35845 | -0.96289 | 25983 ft | 416 kts | 327° |
| 2026-04-30 21:38 | 52.38312 | -0.98752 | 25563 ft | 415 kts | 327° |
| 2026-04-30 21:38 | 52.40773 | -1.01212 | 25148 ft | 413 kts | 327° |
| 2026-04-30 21:38 | 52.43225 | -1.03665 | 24681 ft | 412 kts | 327° |
| 2026-04-30 21:39 | 52.45669 | -1.06115 | 24257 ft | 411 kts | 327° |
| 2026-04-30 21:39 | 52.48111 | -1.08565 | 23827 ft | 411 kts | 327° |
| 2026-04-30 21:39 | 52.50550 | -1.11015 | 23287 ft | 411 kts | 327° |
| 2026-04-30 21:39 | 52.52979 | -1.13461 | 22843 ft | 409 kts | 327° |
| 2026-04-30 21:40 | 52.55390 | -1.15889 | 22483 ft | 404 kts | 327° |
| 2026-04-30 21:40 | 52.57783 | -1.18300 | 22038 ft | 403 kts | 327° |
| 2026-04-30 21:40 | 52.60160 | -1.20700 | 21641 ft | 399 kts | 327° |
| 2026-04-30 21:40 | 52.62520 | -1.23085 | 21255 ft | 397 kts | 327° |
| 2026-04-30 21:41 | 52.64864 | -1.25457 | 20874 ft | 394 kts | 327° |
| 2026-04-30 21:41 | 52.67188 | -1.27812 | 20505 ft | 392 kts | 327° |
| 2026-04-30 21:41 | 52.69500 | -1.30159 | 20145 ft | 389 kts | 327° |
| 2026-04-30 21:41 | 52.71804 | -1.32502 | 19661 ft | 390 kts | 327° |
| 2026-04-30 21:42 | 52.74115 | -1.34854 | 19343 ft | 390 kts | 327° |
| 2026-04-30 21:42 | 52.76432 | -1.37216 | 18888 ft | 391 kts | 327° |
| 2026-04-30 21:42 | 52.78747 | -1.39580 | 18398 ft | 392 kts | 327° |
| 2026-04-30 21:42 | 52.81037 | -1.41920 | 17891 ft | 392 kts | 327° |
| 2026-04-30 21:43 | 52.83381 | -1.44319 | 17408 ft | 391 kts | 327° |
| 2026-04-30 21:43 | 52.84910 | -1.45885 | 17104 ft | 390 kts | 327° |
| 2026-04-30 21:43 | 52.87958 | -1.49011 | 16486 ft | 389 kts | 327° |
| 2026-04-30 21:43 | 52.90253 | -1.51369 | 16023 ft | 388 kts | 327° |
| 2026-04-30 21:44 | 52.92544 | -1.53726 | 15566 ft | 388 kts | 327° |
| 2026-04-30 21:44 | 52.94838 | -1.56087 | 15093 ft | 388 kts | 327° |
| 2026-04-30 21:44 | 52.97130 | -1.58451 | 14640 ft | 387 kts | 327° |
| 2026-04-30 21:44 | 52.99416 | -1.60811 | 14178 ft | 387 kts | 327° |
| 2026-04-30 21:45 | 53.01701 | -1.63172 | 13668 ft | 387 kts | 327° |
| 2026-04-30 21:45 | 53.03980 | -1.65529 | 13171 ft | 385 kts | 327° |
| 2026-04-30 21:45 | 53.06080 | -1.68240 | 12659 ft | 381 kts | 310° |
| 2026-04-30 21:45 | 53.07782 | -1.71590 | 12225 ft | 377 kts | 308° |
| 2026-04-30 21:46 | 53.09483 | -1.74896 | 11803 ft | 375 kts | 308° |
| 2026-04-30 21:46 | 53.11173 | -1.78178 | 11350 ft | 373 kts | 308° |
| 2026-04-30 21:46 | 53.12864 | -1.81462 | 10873 ft | 373 kts | 308° |
| 2026-04-30 21:46 | 53.14546 | -1.84732 | 10442 ft | 370 kts | 308° |
| 2026-04-30 21:47 | 53.16217 | -1.87984 | 9989 ft | 369 kts | 308° |
| 2026-04-30 21:47 | 53.17880 | -1.91224 | 9515 ft | 367 kts | 308° |
| 2026-04-30 21:47 | 53.19532 | -1.94448 | 9066 ft | 364 kts | 308° |
| 2026-04-30 21:47 | 53.21153 | -1.97616 | 8619 ft | 353 kts | 308° |
| 2026-04-30 21:48 | 53.22710 | -2.00683 | 8242 ft | 338 kts | 306° |
| 2026-04-30 21:48 | 53.23723 | -2.04055 | 7824 ft | 318 kts | 278° |
| 2026-04-30 21:48 | 53.23758 | -2.07569 | 7457 ft | 300 kts | 260° |
| 2026-04-30 21:48 | 53.23599 | -2.10971 | 7143 ft | 289 kts | 263° |
| 2026-04-30 21:49 | 53.23474 | -2.14260 | 6817 ft | 279 kts | 263° |
| 2026-04-30 21:49 | 53.23355 | -2.17450 | 6467 ft | 272 kts | 263° |
| 2026-04-30 21:49 | 53.23241 | -2.20572 | 6109 ft | 268 kts | 263° |
| 2026-04-30 21:49 | 53.23128 | -2.23667 | 5750 ft | 266 kts | 262° |
| 2026-04-30 21:50 | 53.23014 | -2.26755 | 5362 ft | 268 kts | 263° |
| 2026-04-30 21:50 | 53.22901 | -2.29845 | 4923 ft | 264 kts | 263° |
| 2026-04-30 21:50 | 53.22790 | -2.32871 | 4536 ft | 257 kts | 262° |
| 2026-04-30 21:50 | 53.22680 | -2.35788 | 4278 ft | 247 kts | 262° |
| 2026-04-30 21:51 | 53.22573 | -2.38617 | 4060 ft | 243 kts | 262° |
| 2026-04-30 21:51 | 53.22593 | -2.41443 | 3729 ft | 248 kts | 278° |
| 2026-04-30 21:51 | 53.23323 | -2.44077 | 3406 ft | 256 kts | 305° |
| 2026-04-30 21:51 | 53.24715 | -2.45951 | 3105 ft | 260 kts | 334° |
| 2026-04-30 21:52 | 53.25844 | -2.46520 | 3030 ft | 253 kts | 354° |
| 2026-04-30 21:52 | 53.27511 | -2.46242 | 2999 ft | 233 kts | 24° |
| 2026-04-30 21:52 | 53.28999 | -2.44210 | 2996 ft | 194 kts | 69° |
| 2026-04-30 21:52 | 53.29320 | -2.42820 | 2986 ft | 189 kts | 79° |
| 2026-04-30 21:53 | 53.29864 | -2.40003 | 2330 ft | 196 kts | 76° |
| 2026-04-30 21:53 | 53.30451 | -2.38058 | 2036 ft | 181 kts | 69° |
| 2026-04-30 21:53 | 53.31147 | -2.36348 | 1559 ft | 175 kts | 61° |
| 2026-04-30 21:53 | 53.31640 | -2.35292 | 1362 ft | 165 kts | 60° |
| 2026-04-30 21:54 | 53.32330 | -2.33825 | 1041 ft | 154 kts | 57° |
| 2026-04-30 21:54 | 53.32952 | -2.32475 | 769 ft | 143 kts | 52° |
| 2026-04-30 21:54 | 53.33580 | -2.31163 | 627 ft | 139 kts | 52° |
| 2026-04-30 21:54 | 53.34164 | -2.29955 | 408 ft | 130 kts | 49° |
| 2026-04-30 21:55 | 53.34728 | -2.28801 | 245 ft | 124 kts | 48° |
| 2026-04-30 21:55 | 53.35218 | -2.27831 | 240 ft | 83 kts | 51° |
| 2026-04-30 21:55 | 53.35457 | -2.27330 | 250 ft | 43 kts | 50° |
| 2026-04-30 21:55 | 53.35588 | -2.27078 | 258 ft | 10 kts | 22° |
| 2026-04-30 21:56 | 53.35645 | -2.27111 | 259 ft | 10 kts | 326° |
| 2026-04-30 21:56 | 53.35707 | -2.27198 | 257 ft | 13 kts | 321° |
| 2026-04-30 21:56 | 53.35774 | -2.27288 | 257 ft | 9 kts | 326° |
| 2026-04-30 21:56 | 53.35819 | -2.27313 | 257 ft | 6 kts | 352° |
| 2026-04-30 21:57 | 53.35866 | -2.27317 | 257 ft | 8 kts | 359° |
| 2026-04-30 21:57 | 53.35897 | -2.27356 | 257 ft | 1 kts | 275° |
| 2026-04-30 21:57 | 53.35894 | -2.27374 | 257 ft | 3 kts | 257° |
| 2026-04-30 21:57 | 53.35893 | -2.27387 | 257 ft | 0 kts | 263° |
| 2026-04-30 21:58 | 53.35892 | -2.27404 | 257 ft | 3 kts | 268° |
| 2026-04-30 21:58 | 53.35893 | -2.27411 | 257 ft | 0 kts | 274° |
| 2026-04-30 21:58 | 53.35893 | -2.27415 | 257 ft | 0 kts | 275° |